Accueil
METAR-TAF:

METAR-TAF

Aéroports :

Rajkot, Inde

latitude: 22-18N, longitude: 070-47E, altitude: 134 m

Observation

Le bulletin a été fait il y a 8 heures et 43 minutes, à 15:00 UTC
Vent 8 kt de nord/nord-est
Température 21°C
Humidité 49%
Pression 1018 hPa
Visibilité: 6000 m

METAR: VARK 221500Z 02008KT 6000 NSC 21/10 Q1018

Heure: 05:13 (23:43 UTC)

Prévision

Le bulletin a été fait il y a 3 heures et 43 minutes, à 20:00 UTC
Prévision valable du 22 à 21 UTC au 23 à 06 UTC
Vent 5 kt de nord-est
Visibilité: 6000 m
Evoluant progressivement
du 23 à 01 UTC au 23 à 03 UTC
Vent 8 kt de nord-est
Visibilité: 2000 m
brume sèche
Evoluant progressivement
du 23 à 04 UTC au 23 à 06 UTC
Visibilité: 6000 m

TAF: VARK 222000Z 2221/2306 05005KT 6000 NSC BECMG 2301/2303 05008KT 2000 HZ BECMG 2304/2306 6000

Observations et prévisions météorologiques de plus de 4000 aéroports (messages METAR et TAF).

Les stations disponibles sont représentées par des disques jaunes et rouges sur la carte.

Passer la souris dessus pour voir le nom de la station.

Cliquer dessus pour voir les observations et prévisions météorologiques.

Pour changer de carte: cliquez sur les boutons verts avec une croix noire pour zoomer, sur le bouton vert avec un tiret pour effectuer un zoom arrière, ou sur les flèches vertes pour les cartes adjacentes.


METAR-TAF: